createdAt,value
2019-05-30T00:00:16.007Z,11.83
2019-05-30T00:01:06.454Z,11.73
2019-05-30T00:02:05.427Z,11.86
2019-05-30T00:03:05.414Z,11.84
2019-05-30T00:04:05.418Z,11.81
2019-05-30T00:05:05.392Z,11.81
2019-05-30T00:06:05.383Z,11.84
2019-05-30T00:07:05.392Z,11.84
2019-05-30T00:08:05.357Z,11.73
2019-05-30T00:09:05.349Z,11.77
2019-05-30T00:10:05.335Z,11.75
2019-05-30T00:11:05.325Z,11.75
2019-05-30T00:12:05.322Z,11.75
2019-05-30T00:13:05.328Z,11.73
2019-05-30T00:14:05.297Z,11.70
2019-05-30T00:15:06.480Z,11.75
2019-05-30T00:16:05.752Z,11.66
2019-05-30T00:17:05.261Z,11.65
2019-05-30T00:18:05.245Z,11.60
2019-05-30T00:19:05.254Z,11.66
2019-05-30T00:20:05.902Z,11.69
2019-05-30T00:21:05.209Z,11.63
2019-05-30T00:22:05.562Z,11.66
2019-05-30T00:23:05.189Z,11.66
2019-05-30T00:24:06.190Z,11.65
2019-05-30T00:25:06.276Z,11.69
2019-05-30T00:26:05.152Z,11.72
2019-05-30T00:27:06.519Z,11.66
2019-05-30T00:28:05.334Z,11.59
2019-05-30T00:29:05.126Z,11.62
2019-05-30T00:30:05.110Z,11.63
2019-05-30T00:31:05.120Z,11.65
2019-05-30T00:32:05.320Z,11.70
2019-05-30T00:33:05.280Z,11.69
2019-05-30T00:34:05.934Z,11.66
2019-05-30T00:35:05.931Z,11.70
2019-05-30T00:36:05.963Z,11.69
2019-05-30T00:37:06.056Z,11.68
2019-05-30T00:38:06.110Z,11.70
2019-05-30T00:39:06.549Z,11.66
2019-05-30T00:40:06.120Z,11.63
2019-05-30T00:41:06.101Z,11.63
2019-05-30T00:42:06.105Z,11.65
2019-05-30T00:43:06.187Z,11.62
2019-05-30T00:44:06.175Z,11.69
2019-05-30T00:45:19.676Z,11.68
2019-05-30T00:46:06.281Z,11.72
2019-05-30T00:47:04.910Z,11.69
2019-05-30T00:48:04.902Z,11.69
2019-05-30T00:49:04.915Z,11.73
2019-05-30T00:50:04.873Z,11.73
2019-05-30T00:51:04.866Z,11.66
2019-05-30T00:52:05.153Z,11.72
2019-05-30T00:53:05.400Z,11.68
2019-05-30T00:54:04.836Z,11.63
2019-05-30T00:55:04.840Z,11.59
2019-05-30T00:56:04.845Z,11.68
2019-05-30T00:57:04.993Z,11.68
2019-05-30T00:58:04.907Z,11.59
2019-05-30T00:59:04.950Z,11.62
2019-05-30T01:00:05.035Z,11.57
2019-05-30T01:01:05.135Z,11.54
2019-05-30T01:02:04.976Z,11.65
2019-05-30T01:03:06.704Z,11.72
2019-05-30T01:04:05.012Z,11.70
2019-05-30T01:05:05.134Z,11.68
2019-05-30T01:06:05.019Z,11.69
2019-05-30T01:07:05.220Z,11.63
2019-05-30T01:08:05.189Z,11.66
2019-05-30T01:09:05.136Z,11.68
2019-05-30T01:10:05.230Z,11.69
2019-05-30T01:11:05.307Z,11.59
2019-05-30T01:12:05.266Z,11.65
2019-05-30T01:13:05.200Z,11.65
2019-05-30T01:14:05.438Z,11.68
2019-05-30T01:15:05.170Z,11.62
2019-05-30T01:16:05.490Z,11.65
2019-05-30T01:17:05.330Z,11.66
2019-05-30T01:18:05.328Z,11.73
2019-05-30T01:19:05.293Z,11.68
2019-05-30T01:20:05.293Z,11.65
2019-05-30T01:21:05.399Z,11.72
2019-05-30T01:22:05.527Z,11.70
2019-05-30T01:23:05.369Z,11.70
2019-05-30T01:24:05.631Z,11.68
2019-05-30T01:25:05.936Z,11.66
2019-05-30T01:26:05.461Z,11.59
2019-05-30T01:27:05.540Z,11.65
2019-05-30T01:28:05.588Z,11.65
2019-05-30T01:29:05.477Z,11.66
2019-05-30T01:30:05.644Z,11.59
2019-05-30T01:31:09.141Z,11.55
2019-05-30T01:32:05.603Z,11.60
2019-05-30T01:33:05.761Z,11.55
2019-05-30T01:34:05.746Z,11.54
2019-05-30T01:35:04.366Z,11.50
2019-05-30T01:36:04.358Z,11.54
2019-05-30T01:37:04.368Z,11.54
2019-05-30T01:38:04.332Z,11.51
2019-05-30T01:39:04.322Z,11.50
2019-05-30T01:40:04.484Z,11.52
2019-05-30T01:41:04.296Z,11.51
2019-05-30T01:42:04.287Z,11.51
2019-05-30T01:43:04.294Z,11.47
2019-05-30T01:44:04.261Z,11.40
2019-05-30T01:45:04.274Z,11.37
2019-05-30T01:46:04.336Z,11.40
2019-05-30T01:47:04.241Z,11.35
2019-05-30T01:48:04.696Z,11.47
2019-05-30T01:49:04.420Z,11.41
2019-05-30T01:50:04.421Z,11.36
2019-05-30T01:51:04.603Z,11.33
2019-05-30T01:52:04.517Z,11.40
2019-05-30T01:53:04.639Z,11.32
2019-05-30T01:54:04.566Z,11.33
2019-05-30T01:55:04.663Z,11.35
2019-05-30T01:56:04.796Z,11.26
2019-05-30T01:57:04.671Z,11.30
2019-05-30T01:58:05.034Z,11.26
2019-05-30T01:59:04.782Z,11.33
2019-05-30T02:00:07.828Z,11.29
2019-05-30T02:01:21.373Z,11.30
2019-05-30T02:02:05.185Z,11.17
2019-05-30T02:03:04.993Z,11.18
2019-05-30T02:04:05.204Z,11.18
2019-05-30T02:05:05.079Z,11.32
2019-05-30T02:06:05.473Z,11.27
2019-05-30T02:07:05.124Z,11.27
2019-05-30T02:08:05.112Z,11.25
2019-05-30T02:09:05.227Z,11.23
2019-05-30T02:10:03.966Z,11.18
2019-05-30T02:11:03.960Z,11.19
2019-05-30T02:12:03.950Z,11.22
2019-05-30T02:13:03.953Z,11.18
2019-05-30T02:14:03.923Z,11.18
2019-05-30T02:15:03.914Z,11.29
2019-05-30T02:16:03.900Z,11.26
2019-05-30T02:17:03.887Z,11.25
2019-05-30T02:18:03.883Z,11.36
2019-05-30T02:19:03.892Z,11.32
2019-05-30T02:20:03.872Z,11.32
2019-05-30T02:21:03.846Z,11.33
2019-05-30T02:22:03.830Z,11.35
2019-05-30T02:23:05.683Z,11.25
2019-05-30T02:24:03.862Z,11.32
2019-05-30T02:25:03.984Z,11.33
2019-05-30T02:26:04.213Z,11.35
2019-05-30T02:27:04.161Z,11.32
2019-05-30T02:28:04.099Z,11.35
2019-05-30T02:29:04.183Z,11.35
2019-05-30T02:30:06.045Z,11.33
2019-05-30T02:31:05.329Z,11.32
2019-05-30T02:32:04.981Z,11.32
2019-05-30T02:33:05.324Z,11.40
2019-05-30T02:34:05.376Z,11.35
2019-05-30T02:35:05.148Z,11.43
2019-05-30T02:36:05.859Z,11.36
2019-05-30T02:37:05.472Z,11.36
2019-05-30T02:38:05.106Z,11.40
2019-05-30T02:39:04.908Z,11.35
2019-05-30T02:40:05.934Z,11.30
2019-05-30T02:41:05.716Z,11.32
2019-05-30T02:42:05.185Z,11.32
2019-05-30T02:43:05.388Z,11.25
2019-05-30T02:44:05.303Z,11.29
2019-05-30T02:45:05.473Z,11.26
2019-05-30T02:46:05.692Z,11.25
2019-05-30T02:47:05.437Z,11.19
2019-05-30T02:48:05.350Z,11.25
2019-05-30T02:49:04.927Z,11.26
2019-05-30T02:50:04.412Z,11.29
2019-05-30T02:51:05.389Z,11.29
2019-05-30T02:52:04.741Z,11.35
2019-05-30T02:53:03.726Z,11.35
2019-05-30T02:54:04.036Z,11.43
2019-05-30T02:55:03.872Z,11.35
2019-05-30T02:56:03.712Z,11.36
2019-05-30T02:57:03.686Z,11.35
2019-05-30T02:58:03.766Z,11.32
2019-05-30T02:59:03.926Z,11.40
2019-05-30T03:00:04.674Z,11.36
2019-05-30T03:01:04.002Z,11.35
2019-05-30T03:02:07.264Z,11.41
2019-05-30T03:03:06.203Z,11.40
2019-05-30T03:04:04.037Z,11.36
2019-05-30T03:05:04.021Z,11.36
2019-05-30T03:06:03.861Z,11.43
2019-05-30T03:07:04.100Z,11.40
2019-05-30T03:08:04.951Z,11.37
2019-05-30T03:09:03.928Z,11.40
2019-05-30T03:10:05.144Z,11.43
2019-05-30T03:11:05.098Z,11.35
2019-05-30T03:12:04.091Z,11.36
2019-05-30T03:13:04.124Z,11.43
2019-05-30T03:14:04.335Z,11.45
2019-05-30T03:15:05.226Z,11.41
2019-05-30T03:16:04.664Z,11.35
2019-05-30T03:17:05.342Z,11.37
2019-05-30T03:18:04.708Z,11.50
2019-05-30T03:19:03.832Z,11.45
2019-05-30T03:20:10.989Z,11.51
2019-05-30T03:21:05.769Z,11.48
2019-05-30T03:22:04.756Z,11.43
2019-05-30T03:23:05.275Z,11.40
2019-05-30T03:24:04.951Z,11.37
2019-05-30T03:25:05.028Z,11.47
2019-05-30T03:26:04.783Z,11.41
2019-05-30T03:27:04.806Z,11.40
2019-05-30T03:28:05.080Z,11.48
2019-05-30T03:29:05.022Z,11.50
2019-05-30T03:30:05.110Z,11.52
2019-05-30T03:31:08.901Z,11.51
2019-05-30T03:32:39.720Z,11.48
2019-05-30T03:33:17.173Z,11.57
2019-05-30T03:34:08.253Z,11.54
2019-05-30T03:35:09.197Z,11.57
2019-05-30T03:36:09.197Z,11.55
2019-05-30T03:37:06.246Z,11.59
2019-05-30T03:38:05.648Z,11.60
2019-05-30T03:39:03.312Z,11.55
2019-05-30T03:40:02.942Z,11.63
2019-05-30T03:41:04.636Z,11.69
2019-05-30T03:42:04.424Z,11.62
2019-05-30T03:43:04.090Z,11.65
2019-05-30T03:44:04.024Z,11.62
2019-05-30T03:45:04.216Z,11.72
2019-05-30T03:46:04.045Z,11.69
2019-05-30T03:47:03.891Z,11.66
2019-05-30T03:48:04.283Z,11.66
2019-05-30T03:49:04.347Z,11.70
2019-05-30T03:50:04.614Z,11.66
2019-05-30T03:51:04.156Z,11.72
2019-05-30T03:52:05.038Z,11.70
2019-05-30T03:53:04.621Z,11.70
2019-05-30T03:54:04.806Z,11.73
2019-05-30T03:55:04.759Z,11.78
2019-05-30T03:56:04.466Z,11.80
2019-05-30T03:57:04.623Z,11.78
2019-05-30T03:58:02.725Z,11.72
2019-05-30T03:59:02.727Z,11.81
2019-05-30T04:00:02.705Z,11.78
2019-05-30T04:01:02.739Z,11.75
2019-05-30T04:02:02.690Z,11.77
2019-05-30T04:03:02.679Z,11.70
2019-05-30T04:04:02.658Z,11.84
2019-05-30T04:05:02.682Z,11.83
2019-05-30T04:06:02.656Z,11.84
2019-05-30T04:07:02.726Z,11.84
2019-05-30T04:08:02.612Z,11.90
2019-05-30T04:09:02.610Z,11.87
2019-05-30T04:10:02.600Z,11.87
2019-05-30T04:11:02.582Z,11.90
2019-05-30T04:12:02.567Z,11.87
2019-05-30T04:13:02.670Z,11.86
2019-05-30T04:14:02.543Z,11.86
2019-05-30T04:15:02.531Z,11.87
2019-05-30T04:16:02.520Z,11.88
2019-05-30T04:17:02.552Z,11.90
2019-05-30T04:18:02.498Z,11.95
2019-05-30T04:19:02.516Z,12.00
2019-05-30T04:20:02.475Z,12.04
2019-05-30T04:21:02.465Z,11.99
2019-05-30T04:22:02.460Z,11.99
2019-05-30T04:23:02.520Z,11.99
2019-05-30T04:24:02.432Z,11.95
2019-05-30T04:25:02.441Z,11.99
2019-05-30T04:26:02.414Z,12.09
2019-05-30T04:27:02.393Z,12.03
2019-05-30T04:28:02.378Z,12.13
2019-05-30T04:29:02.368Z,12.12
2019-05-30T04:30:02.362Z,12.18
2019-05-30T04:31:02.383Z,12.10
2019-05-30T04:32:02.347Z,12.18
2019-05-30T04:33:17.214Z,12.15
2019-05-30T04:34:03.312Z,12.15
2019-05-30T04:35:02.304Z,12.17
2019-05-30T04:36:02.287Z,12.20
2019-05-30T04:37:02.304Z,12.18
2019-05-30T04:38:02.270Z,12.20
2019-05-30T04:39:02.358Z,12.21
2019-05-30T04:40:02.258Z,12.29
2019-05-30T04:41:02.234Z,12.28
2019-05-30T04:42:02.227Z,12.27
2019-05-30T04:43:02.238Z,12.31
2019-05-30T04:44:02.201Z,12.32
2019-05-30T04:45:02.199Z,12.28
2019-05-30T04:46:02.176Z,12.31
2019-05-30T04:47:02.167Z,12.37
2019-05-30T04:48:02.161Z,12.40
2019-05-30T04:49:02.176Z,12.37
2019-05-30T04:50:02.134Z,12.40
2019-05-30T04:51:02.121Z,12.40
2019-05-30T04:52:02.114Z,12.46
2019-05-30T04:53:02.121Z,12.50
2019-05-30T04:54:02.089Z,12.46
2019-05-30T04:55:02.104Z,12.43
2019-05-30T04:56:02.068Z,12.35
2019-05-30T04:57:02.068Z,12.42
2019-05-30T04:58:02.041Z,12.55
2019-05-30T04:59:02.038Z,12.60
2019-05-30T05:00:02.042Z,12.54
2019-05-30T05:01:02.026Z,12.50
2019-05-30T05:02:01.995Z,12.58
2019-05-30T05:03:01.998Z,12.55
2019-05-30T05:04:01.978Z,12.65
2019-05-30T05:05:01.959Z,12.61
2019-05-30T05:06:01.961Z,12.64
2019-05-30T05:07:01.957Z,12.67
2019-05-30T05:08:01.954Z,12.65
2019-05-30T05:09:01.933Z,12.75
2019-05-30T05:10:01.909Z,12.78
2019-05-30T05:11:01.890Z,12.76
2019-05-30T05:12:01.886Z,12.75
2019-05-30T05:13:01.891Z,12.83
2019-05-30T05:14:01.857Z,12.80
2019-05-30T05:15:01.852Z,12.83
2019-05-30T05:16:01.839Z,12.90
2019-05-30T05:17:01.822Z,12.80
2019-05-30T05:18:01.813Z,12.90
2019-05-30T05:19:01.823Z,13.00
2019-05-30T05:20:01.787Z,13.13
2019-05-30T05:21:01.775Z,13.11
2019-05-30T05:22:01.761Z,13.12
2019-05-30T05:23:01.761Z,13.13
2019-05-30T05:24:01.744Z,13.15
2019-05-30T05:25:01.753Z,13.30
2019-05-30T05:26:01.734Z,13.28
2019-05-30T05:27:01.703Z,13.27
2019-05-30T05:28:01.695Z,13.27
2019-05-30T05:29:01.677Z,13.37
2019-05-30T05:30:01.666Z,13.39
2019-05-30T05:31:01.673Z,13.38
2019-05-30T05:32:01.638Z,13.31
2019-05-30T05:33:01.701Z,13.37
2019-05-30T05:34:01.622Z,13.46
2019-05-30T05:35:01.613Z,13.44
2019-05-30T05:36:01.590Z,13.46
2019-05-30T05:37:01.595Z,13.38
2019-05-30T05:38:01.570Z,13.37
2019-05-30T05:39:01.557Z,13.46
2019-05-30T05:40:01.544Z,13.49
2019-05-30T05:41:01.528Z,13.52
2019-05-30T05:42:01.517Z,13.57
2019-05-30T05:43:01.528Z,13.54
2019-05-30T05:44:01.494Z,13.63
2019-05-30T05:45:01.485Z,13.68
2019-05-30T05:46:01.469Z,13.68
2019-05-30T05:47:01.455Z,13.72
2019-05-30T05:48:01.442Z,13.71
2019-05-30T05:49:01.458Z,13.81
2019-05-30T05:50:01.420Z,13.68
2019-05-30T05:51:01.408Z,13.79
2019-05-30T05:52:01.395Z,13.83
2019-05-30T05:53:01.385Z,13.71
2019-05-30T05:54:01.373Z,13.70
2019-05-30T05:55:01.382Z,13.68
2019-05-30T05:56:01.347Z,13.71
2019-05-30T05:57:01.335Z,13.74
2019-05-30T05:58:04.227Z,13.74
2019-05-30T05:59:01.318Z,13.85
2019-05-30T06:00:01.297Z,13.74
2019-05-30T06:01:01.305Z,13.79
2019-05-30T06:02:01.280Z,13.83
2019-05-30T06:03:01.263Z,13.79
2019-05-30T06:04:12.537Z,13.85
2019-05-30T06:05:02.236Z,13.83
2019-05-30T06:06:01.271Z,13.86
2019-05-30T06:07:01.252Z,13.89
2019-05-30T06:08:01.204Z,13.86
2019-05-30T06:09:01.199Z,13.87
2019-05-30T06:10:01.179Z,13.90
2019-05-30T06:11:01.170Z,13.87
2019-05-30T06:12:01.157Z,13.86
2019-05-30T06:13:01.171Z,13.92
2019-05-30T06:14:01.135Z,13.99
2019-05-30T06:15:01.286Z,14.04
2019-05-30T06:16:01.108Z,14.07
2019-05-30T06:17:01.096Z,14.03
2019-05-30T06:18:01.084Z,14.03
2019-05-30T06:19:01.096Z,14.05
2019-05-30T06:20:01.057Z,14.00
2019-05-30T06:21:01.046Z,14.04
2019-05-30T06:22:01.062Z,14.05
2019-05-30T06:23:01.024Z,14.15
2019-05-30T06:24:01.014Z,14.14
2019-05-30T06:25:01.031Z,14.11
2019-05-30T06:26:00.988Z,14.07
2019-05-30T06:27:00.977Z,14.04
2019-05-30T06:28:00.980Z,14.05
2019-05-30T06:29:00.951Z,13.99
2019-05-30T06:30:00.945Z,13.99
2019-05-30T06:31:00.952Z,14.07
2019-05-30T06:32:00.915Z,14.08
2019-05-30T06:33:00.906Z,14.07
2019-05-30T06:34:00.896Z,14.07
2019-05-30T06:35:00.917Z,14.03
2019-05-30T06:36:00.881Z,14.07
2019-05-30T06:37:00.935Z,14.10
2019-05-30T06:38:00.854Z,14.12
2019-05-30T06:39:00.834Z,14.17
2019-05-30T06:40:00.825Z,14.22
2019-05-30T06:41:00.822Z,14.32
2019-05-30T06:42:00.805Z,14.41
2019-05-30T06:43:00.809Z,14.50
2019-05-30T06:44:00.787Z,14.44
2019-05-30T06:45:00.769Z,14.35
2019-05-30T06:46:00.752Z,14.48
2019-05-30T06:47:00.742Z,14.45
2019-05-30T06:48:00.730Z,14.62
2019-05-30T06:49:00.740Z,14.70
2019-05-30T06:50:00.727Z,14.69
2019-05-30T06:51:00.694Z,14.65
2019-05-30T06:52:00.685Z,14.78
2019-05-30T06:53:00.673Z,14.81
2019-05-30T06:54:00.665Z,14.79
2019-05-30T06:55:00.674Z,14.77
2019-05-30T06:56:00.641Z,14.66
2019-05-30T06:57:00.632Z,14.78
2019-05-30T06:58:00.615Z,14.82
2019-05-30T06:59:00.609Z,14.79
2019-05-30T07:00:00.591Z,14.79
2019-05-30T07:01:00.596Z,14.88
2019-05-30T07:02:00.571Z,14.77
2019-05-30T07:03:00.597Z,14.84
2019-05-30T07:04:00.668Z,14.91
2019-05-30T07:05:01.304Z,14.84
2019-05-30T07:06:00.931Z,14.99
2019-05-30T07:07:00.833Z,14.91
2019-05-30T07:08:00.501Z,15.00
2019-05-30T07:09:00.491Z,15.00
2019-05-30T07:10:00.481Z,15.02
2019-05-30T07:11:00.469Z,14.99
2019-05-30T07:12:00.454Z,15.06
2019-05-30T07:13:00.462Z,15.03
2019-05-30T07:14:00.430Z,15.02
2019-05-30T07:15:00.418Z,15.02
2019-05-30T07:16:00.410Z,15.04
2019-05-30T07:17:00.399Z,15.03
2019-05-30T07:18:00.386Z,15.06
2019-05-30T07:19:00.393Z,15.22
2019-05-30T07:20:00.362Z,15.17
2019-05-30T07:21:00.355Z,15.14
2019-05-30T07:22:00.342Z,15.22
2019-05-30T07:23:00.329Z,15.31
2019-05-30T07:24:00.319Z,15.44
2019-05-30T07:25:00.381Z,15.42
2019-05-30T07:26:03.381Z,15.43
2019-05-30T07:27:00.283Z,15.55
2019-05-30T07:28:00.272Z,15.68
2019-05-30T07:29:00.844Z,15.75
2019-05-30T07:30:00.251Z,15.84
2019-05-30T07:31:00.255Z,15.94
2019-05-30T07:32:00.227Z,15.90
2019-05-30T07:33:00.215Z,15.98
2019-05-30T07:34:00.204Z,16.02
2019-05-30T07:35:06.979Z,15.88
2019-05-30T07:36:01.204Z,15.83
2019-05-30T07:37:00.166Z,15.94
2019-05-30T07:38:00.175Z,15.94
2019-05-30T07:39:00.144Z,16.02
2019-05-30T07:40:00.135Z,16.20
2019-05-30T07:41:00.121Z,16.28
2019-05-30T07:42:06.105Z,16.16
2019-05-30T07:43:01.105Z,16.24
2019-05-30T07:44:00.093Z,16.23
2019-05-30T07:45:00.076Z,16.41
2019-05-30T07:46:00.069Z,16.39
2019-05-30T07:47:00.054Z,16.42
2019-05-30T07:48:00.147Z,16.26
2019-05-30T07:49:00.039Z,16.42
2019-05-30T07:50:00.019Z,16.33
2019-05-30T07:51:00.007Z,16.46
2019-05-30T07:52:00.000Z,16.33
2019-05-30T07:53:00.015Z,16.21
2019-05-30T07:53:59.990Z,16.05
2019-05-30T07:54:59.963Z,16.02
2019-05-30T07:55:59.950Z,15.97
2019-05-30T07:56:59.941Z,15.86
2019-05-30T07:57:59.945Z,15.91
2019-05-30T07:58:59.916Z,15.88
2019-05-30T07:59:59.929Z,15.88
2019-05-30T08:00:59.895Z,15.80
2019-05-30T08:01:59.880Z,15.79
2019-05-30T08:02:59.875Z,15.75
2019-05-30T08:03:59.867Z,15.73
2019-05-30T08:04:59.847Z,15.80
2019-05-30T08:05:59.856Z,15.94
2019-05-30T08:06:59.828Z,15.95
2019-05-30T08:07:59.815Z,16.05
2019-05-30T08:08:59.803Z,16.00
2019-05-30T08:09:59.796Z,16.02
2019-05-30T08:11:08.870Z,15.98
2019-05-30T08:12:00.789Z,16.04
2019-05-30T08:12:59.757Z,15.92
2019-05-30T08:13:59.747Z,15.84
2019-05-30T08:14:59.736Z,15.86
2019-05-30T08:15:59.722Z,15.88
2019-05-30T08:16:59.712Z,15.98
2019-05-30T08:17:59.719Z,15.88
2019-05-30T08:18:59.688Z,15.88
2019-05-30T08:19:59.676Z,15.88
2019-05-30T08:20:59.670Z,15.97
2019-05-30T08:21:59.655Z,16.01
2019-05-30T08:22:59.645Z,15.88
2019-05-30T08:23:59.656Z,15.82
2019-05-30T08:24:59.621Z,15.92
2019-05-30T08:25:59.609Z,15.90
2019-05-30T08:26:59.599Z,15.86
2019-05-30T08:27:59.590Z,15.90
2019-05-30T08:28:59.573Z,15.90
2019-05-30T08:29:59.586Z,15.83
2019-05-30T08:30:59.563Z,15.97
2019-05-30T08:31:59.540Z,16.00
2019-05-30T08:32:59.530Z,16.05
2019-05-30T08:33:59.521Z,16.10
2019-05-30T08:34:59.507Z,16.04
2019-05-30T08:35:59.517Z,16.10
2019-05-30T08:36:59.483Z,16.05
2019-05-30T08:37:59.468Z,16.10
2019-05-30T08:38:59.461Z,16.04
2019-05-30T08:39:59.453Z,16.00
2019-05-30T08:40:59.435Z,15.95
2019-05-30T08:41:59.449Z,16.04
2019-05-30T08:42:59.413Z,15.91
2019-05-30T08:43:59.404Z,15.95
2019-05-30T08:44:59.388Z,15.92
2019-05-30T08:45:59.387Z,15.88
2019-05-30T08:46:59.366Z,15.92
2019-05-30T08:47:59.374Z,15.88
2019-05-30T08:49:01.725Z,15.88
2019-05-30T08:49:59.334Z,15.82
2019-05-30T08:50:59.338Z,15.90
2019-05-30T08:51:59.309Z,15.95
2019-05-30T08:52:59.302Z,15.97
2019-05-30T08:53:59.316Z,15.94
2019-05-30T08:54:59.274Z,15.88
2019-05-30T08:55:59.263Z,15.91
2019-05-30T08:56:59.259Z,15.90
2019-05-30T08:57:59.242Z,15.91
2019-05-30T08:58:59.229Z,15.88
2019-05-30T08:59:59.252Z,15.95
2019-05-30T09:00:59.210Z,15.91
2019-05-30T09:01:59.200Z,16.10
2019-05-30T09:02:59.183Z,16.08
2019-05-30T09:03:59.173Z,16.08
2019-05-30T09:04:59.163Z,16.21
2019-05-30T09:06:04.008Z,16.24
2019-05-30T09:07:00.147Z,16.13
2019-05-30T09:07:59.125Z,16.08
2019-05-30T09:08:59.115Z,16.09
2019-05-30T09:09:59.103Z,16.05
2019-05-30T09:10:59.104Z,16.05
2019-05-30T09:11:59.104Z,16.13
2019-05-30T09:12:59.073Z,16.01
2019-05-30T09:13:59.063Z,16.15
2019-05-30T09:14:59.049Z,16.13
2019-05-30T09:15:59.103Z,15.98
2019-05-30T09:16:59.025Z,16.13
2019-05-30T09:17:59.037Z,16.05
2019-05-30T09:18:59.005Z,16.23
2019-05-30T09:19:58.988Z,16.17
2019-05-30T09:20:58.981Z,16.21
2019-05-30T09:21:58.968Z,16.35
2019-05-30T09:22:58.954Z,16.42
2019-05-30T09:24:01.390Z,16.38
2019-05-30T09:24:58.932Z,16.47
2019-05-30T09:25:58.921Z,16.60
2019-05-30T09:26:58.909Z,16.54
2019-05-30T09:27:58.898Z,16.50
2019-05-30T09:28:58.887Z,16.47
2019-05-30T09:29:58.904Z,16.56
2019-05-30T09:30:58.875Z,16.60
2019-05-30T09:31:58.854Z,16.66
2019-05-30T09:32:58.842Z,16.71
2019-05-30T09:33:58.846Z,16.90
2019-05-30T09:34:58.820Z,16.78
2019-05-30T09:36:12.148Z,16.81
2019-05-30T09:36:59.798Z,16.78
2019-05-30T09:37:58.787Z,16.91
2019-05-30T09:38:58.780Z,16.94
2019-05-30T09:39:58.768Z,17.05
2019-05-30T09:40:58.756Z,17.09
2019-05-30T09:41:58.761Z,17.19
2019-05-30T09:42:58.740Z,17.24
2019-05-30T09:43:58.733Z,17.27
2019-05-30T09:44:58.713Z,17.31
2019-05-30T09:45:58.697Z,17.39
2019-05-30T09:46:58.690Z,17.39
2019-05-30T09:47:58.719Z,17.49
2019-05-30T09:48:58.672Z,17.67
2019-05-30T09:49:58.658Z,17.65
2019-05-30T09:50:58.644Z,17.71
2019-05-30T09:51:58.631Z,17.63
2019-05-30T09:52:58.624Z,17.82
2019-05-30T09:53:58.635Z,18.03
2019-05-30T09:54:58.605Z,17.89
2019-05-30T09:55:58.586Z,18.18
2019-05-30T09:56:58.575Z,18.43
2019-05-30T09:57:58.567Z,18.34
2019-05-30T09:58:58.555Z,18.13
2019-05-30T09:59:58.566Z,18.18
2019-05-30T10:00:58.544Z,18.20
2019-05-30T10:01:58.520Z,18.28
2019-05-30T10:02:58.509Z,18.29
2019-05-30T10:03:58.498Z,18.18
2019-05-30T10:04:58.484Z,18.49
2019-05-30T10:05:58.495Z,18.63
2019-05-30T10:06:58.460Z,18.92
2019-05-30T10:07:58.457Z,19.08
2019-05-30T10:08:58.446Z,19.16
2019-05-30T10:09:58.431Z,19.27
2019-05-30T10:10:58.414Z,19.33
2019-05-30T10:11:58.426Z,19.19
2019-05-30T10:12:58.404Z,19.24
2019-05-30T10:13:58.379Z,18.92
2019-05-30T10:14:58.374Z,18.77
2019-05-30T10:15:58.358Z,18.92
2019-05-30T10:16:58.351Z,18.68
2019-05-30T10:17:58.361Z,18.98
2019-05-30T10:18:58.326Z,19.24
2019-05-30T10:19:58.314Z,19.22
2019-05-30T10:20:58.307Z,18.98
2019-05-30T10:21:58.291Z,18.59
2019-05-30T10:22:58.283Z,18.40
2019-05-30T10:23:58.297Z,18.59
2019-05-30T10:24:58.259Z,18.63
2019-05-30T10:25:58.248Z,18.81
2019-05-30T10:26:58.239Z,18.75
2019-05-30T10:27:58.231Z,18.90
2019-05-30T10:28:58.217Z,19.08
2019-05-30T10:29:58.238Z,19.24
2019-05-30T10:30:59.461Z,19.00
2019-05-30T10:31:58.182Z,18.71
2019-05-30T10:32:58.175Z,18.70
2019-05-30T10:33:58.167Z,18.75
2019-05-30T10:34:58.147Z,18.53
2019-05-30T10:35:58.158Z,18.44
2019-05-30T10:36:58.129Z,18.58
2019-05-30T10:37:58.115Z,18.66
2019-05-30T10:38:58.107Z,18.84
2019-05-30T10:39:59.224Z,18.99
2019-05-30T10:40:58.083Z,19.00
2019-05-30T10:41:58.099Z,19.00
2019-05-30T10:42:58.056Z,19.11
2019-05-30T10:43:58.050Z,19.22
2019-05-30T10:44:58.038Z,19.27
2019-05-30T10:45:58.031Z,19.29
2019-05-30T10:46:58.027Z,19.41
2019-05-30T10:47:58.028Z,19.52
2019-05-30T10:48:57.992Z,19.39
2019-05-30T10:49:57.980Z,19.47
2019-05-30T10:50:57.971Z,19.45
2019-05-30T10:51:59.308Z,19.33
2019-05-30T10:52:57.948Z,19.26
2019-05-30T10:53:57.956Z,19.41
2019-05-30T10:54:57.924Z,19.62
2019-05-30T10:55:57.924Z,19.59
2019-05-30T10:56:57.905Z,19.66
2019-05-30T10:57:59.577Z,19.81
2019-05-30T10:58:57.881Z,20.03
2019-05-30T10:59:57.891Z,20.02
2019-05-30T11:00:58.124Z,20.13
2019-05-30T11:01:57.845Z,20.10
2019-05-30T11:02:57.834Z,19.73
2019-05-30T11:03:57.824Z,19.56
2019-05-30T11:04:57.812Z,19.54
2019-05-30T11:05:57.822Z,19.26
2019-05-30T11:07:10.745Z,19.45
2019-05-30T11:08:03.876Z,19.47
2019-05-30T11:08:58.764Z,19.77
2019-05-30T11:09:57.777Z,19.58
2019-05-30T11:10:57.754Z,19.29
2019-05-30T11:11:57.766Z,19.39
2019-05-30T11:13:05.600Z,19.51
2019-05-30T11:13:58.710Z,19.66
2019-05-30T11:14:57.914Z,19.79
2019-05-30T11:15:57.691Z,19.77
2019-05-30T11:16:57.828Z,19.91
2019-05-30T11:17:57.788Z,19.84
2019-05-30T11:18:57.971Z,19.86
2019-05-30T11:19:57.979Z,20.04
2019-05-30T11:20:58.601Z,20.04
2019-05-30T11:21:58.172Z,20.13
2019-05-30T11:22:58.485Z,20.19
2019-05-30T11:23:58.333Z,20.07
2019-05-30T11:24:59.347Z,19.91
2019-05-30T11:25:58.804Z,19.69
2019-05-30T11:26:58.884Z,19.64
2019-05-30T11:27:58.842Z,19.48
2019-05-30T11:28:58.652Z,19.37
2019-05-30T11:29:58.912Z,19.40
2019-05-30T11:30:58.874Z,19.29
2019-05-30T11:31:57.510Z,19.11
2019-05-30T11:32:57.509Z,19.09
2019-05-30T11:33:57.510Z,19.14
2019-05-30T11:34:57.492Z,19.09
2019-05-30T11:35:57.491Z,18.99
2019-05-30T11:36:57.457Z,18.96
2019-05-30T11:37:57.445Z,18.84
2019-05-30T11:38:57.499Z,18.84
2019-05-30T11:39:57.429Z,18.88
2019-05-30T11:40:57.613Z,18.83
2019-05-30T11:41:57.677Z,18.96
2019-05-30T11:42:57.497Z,18.86
2019-05-30T11:43:57.868Z,18.83
2019-05-30T11:44:57.578Z,18.86
2019-05-30T11:45:57.794Z,18.86
2019-05-30T11:46:57.749Z,18.84
2019-05-30T11:47:58.040Z,18.74
2019-05-30T11:48:57.893Z,18.73
2019-05-30T11:49:57.752Z,18.83
2019-05-30T11:50:57.927Z,18.83
2019-05-30T11:51:57.872Z,18.73
2019-05-30T11:52:57.948Z,18.66
2019-05-30T11:53:57.997Z,18.70
2019-05-30T11:54:58.096Z,18.71
2019-05-30T11:55:58.310Z,18.70
2019-05-30T11:56:58.129Z,18.74
2019-05-30T11:57:58.342Z,18.66
2019-05-30T11:58:58.067Z,18.52
2019-05-30T11:59:58.328Z,18.52
2019-05-30T12:00:58.312Z,18.53
2019-05-30T12:01:58.380Z,18.68
2019-05-30T12:02:57.162Z,18.78
2019-05-30T12:03:57.148Z,18.90
2019-05-30T12:04:57.144Z,18.95
2019-05-30T12:05:57.140Z,18.99
2019-05-30T12:06:57.108Z,19.11
2019-05-30T12:07:57.112Z,19.12
2019-05-30T12:08:57.091Z,18.99
2019-05-30T12:09:57.077Z,18.93
2019-05-30T12:10:57.216Z,18.63
2019-05-30T12:11:57.426Z,18.53
2019-05-30T12:12:57.429Z,18.52
2019-05-30T12:13:59.391Z,18.47
2019-05-30T12:14:57.378Z,18.43
2019-05-30T12:15:57.464Z,18.52
2019-05-30T12:16:57.306Z,18.65
2019-05-30T12:17:57.460Z,18.90
2019-05-30T12:18:58.094Z,18.90
2019-05-30T12:19:57.593Z,18.96
2019-05-30T12:20:57.785Z,19.08
2019-05-30T12:21:57.692Z,19.19
2019-05-30T12:22:57.974Z,19.16
2019-05-30T12:23:58.107Z,19.09
2019-05-30T12:24:57.770Z,19.11
2019-05-30T12:25:57.958Z,19.14
2019-05-30T12:26:58.014Z,19.00
2019-05-30T12:27:58.060Z,18.96
2019-05-30T12:28:58.037Z,18.86
2019-05-30T12:29:58.162Z,18.83
2019-05-30T12:31:02.711Z,18.77
2019-05-30T12:32:00.247Z,18.75
2019-05-30T12:32:56.812Z,18.53
2019-05-30T12:33:56.801Z,18.56
2019-05-30T12:34:56.789Z,18.63
2019-05-30T12:35:56.799Z,18.89
2019-05-30T12:36:56.766Z,18.83
2019-05-30T12:38:01.356Z,18.84
2019-05-30T12:38:58.425Z,18.86
2019-05-30T12:39:56.730Z,18.99
2019-05-30T12:40:56.762Z,18.99
2019-05-30T12:41:56.895Z,19.08
2019-05-30T12:42:59.230Z,19.15
2019-05-30T12:43:56.964Z,19.19
2019-05-30T12:44:56.983Z,19.16
2019-05-30T12:45:56.936Z,19.21
2019-05-30T12:46:57.109Z,19.27
2019-05-30T12:47:57.081Z,19.27
2019-05-30T12:48:57.336Z,19.29
2019-05-30T12:49:57.166Z,19.27
2019-05-30T12:50:57.212Z,19.47
2019-05-30T12:51:56.605Z,19.59